Airfield :
LOGIN :

Register | Disclaimer

   EN    FR    IT 

 










Legend :    VFR   Marginal VFR   IFR   Intensive IFR   Very Intensive IFR
Visi :
Ceiling :
>= 8 km
>= 3000ft
5 to 8 km
1000 to 3000 ft
1500m to 5 km
500 to 1000 ft
800 to 1500m
200 to 500 ft
< 800m
< 200 ft
Symbols :   Thunderstorms  Fog  Heavy snow  Heavy precipitations  Wind > 20 kt
SIGMETs :     Misc.  Thunderstorms  Icing  Turbulence  Mountain Waves  Volcanic Ashes







- Airport Elevation : 1234 ft
- IATA code : LUX


ELLX - Luxembourg Findel

CURRENT METAR :
  • 231450Z 25008KT 4000 -DZ BR SCT003 BKN006 10/09 Q1022 NOSIG

EXPIRED METARs :
  • 231420Z 23008KT 5000 -DZ FEW005 BKN008 10/09 Q1022 NOSIG
  • 231350Z 22006KT 190V250 9999 -DZ FEW006 BKN009 10/09 Q1022 NOSIG
  • 231320Z 24008KT 9999 -DZ FEW007 BKN009 10/09 Q1022 NOSIG
  • 231250Z 25009KT 9999 -DZ FEW006 BKN009 BKN013 09/09 Q1022 NOSIG
  • 231220Z 25010KT 3000 -DZ FEW009 BKN024 10/08 Q1022 NOSIG

TAF COR TAF ELLX
Valid from the 23 at 12:00 until the 24 at 18:00 UTC


231100Z 2312/2418 25010KT 9999 BKN012
TEMPO 2313/2404 -RADZ BKN007
BECMG 2402/2404 19005KT BKN008
TEMPO 2404/2411 2500 DZRA BKN003 BKN005
ATIS : +352 4798 27300
Met : +352 4798 27010 / 27050
No reported NOTAMs for that airfield.



MET'MAP, your aeronautical weather chart ! - Copyright ORBIFLY December 2007 - Disclaimer

ORBIFLY MET'MAP TEAM :

Programming & Development : Alexandra Zaïnal
Concept & Development : Baudouin d'Aumeries
Co-Development & Prog : Marc-Olivier Méhu
Technical & hardware support : Manuel Goepfert

Contact : metmap@orbifly.com




SOURCES & CREDITS :

   NOAA